This is the latest recevied weather packets stored in our database for station/object XE1GMR. If no packets are shown the sender has not sent any weather packets the latest 10 day(s).
| Time | Temp. | Humidity | Pressure | Rain* | Wind** | Luminosity | Snow |
|---|---|---|---|---|---|---|---|
| 1777752372 | 28.33° C | 42% | 1119.4 hPa | 0 mm | - | 347 W/m² | - |
| 1777752070 | 28.33° C | 41% | 1119.5 hPa | 0 mm | - | 233 W/m² | - |
| 1777751768 | 28.89° C | 41% | 1119.4 hPa | 0 mm | - | 761 W/m² | - |
| 1777751463 | 28.89° C | 40% | 1119.5 hPa | 0 mm | - | 246 W/m² | - |
| 1777751160 | 28.89° C | 41% | 1119.5 hPa | 0 mm | - | 235 W/m² | - |
| 1777750856 | 29.44° C | 39% | 1119.7 hPa | 0 mm | - | 543 W/m² | - |
| 1777750553 | 28.33° C | 41% | 1119.7 hPa | 0 mm | - | 758 W/m² | - |
| 1777750250 | 28.89° C | 41% | 1119.6 hPa | 0 mm | - | 219 W/m² | - |
| 1777749945 | 30° C | 39% | 1119.8 hPa | 0 mm | - | 725 W/m² | - |
| 1777749643 | 30° C | 37% | 1120 hPa | 0 mm | - | 766 W/m² | - |
| 1777749340 | 28.89° C | 41% | 1120 hPa | 0 mm | - | 794 W/m² | - |
| 1777749038 | 28.89° C | 42% | 1120.2 hPa | 0 mm | - | 764 W/m² | - |
| 1777748735 | 30.56° C | 35% | 1120.2 hPa | 0 mm | - | 260 W/m² | - |
| 1777748432 | 30° C | 34% | 1120.1 hPa | 0 mm | - | 782 W/m² | - |
| 1777748127 | 30.56° C | 33% | 1120.4 hPa | 0 mm | - | 747 W/m² | - |
| 1777747824 | 30.56° C | 33% | 1120.2 hPa | 0 mm | - | 730 W/m² | - |
| 1777747520 | 30.56° C | 33% | 1120.4 hPa | 0 mm | - | 778 W/m² | - |
| 1777747216 | 30° C | 33% | 1120.4 hPa | 0 mm | - | 783 W/m² | - |
| 1777746912 | 29.44° C | 35% | 1120.5 hPa | 0 mm | - | 778 W/m² | - |
| 1777746608 | 28.89° C | 37% | 1120.8 hPa | 0 mm | - | 780 W/m² | - |
| 1777746303 | 27.78° C | 39% | 1121 hPa | 0 mm | - | 763 W/m² | - |
| 1777746000 | 28.33° C | 38% | 1120.8 hPa | 0 mm | - | 762 W/m² | - |
| 1777745698 | 28.89° C | 38% | 1120.9 hPa | 0 mm | - | 765 W/m² | - |
| 1777745396 | 28.33° C | 39% | 1121.1 hPa | 0 mm | - | 756 W/m² | - |
| 1777745093 | 27.78° C | 39% | 1121.1 hPa | 0 mm | - | 760 W/m² | - |
* Rain latest hour (hover to see other rain measurements)
** Current wind speed in m/s (hover to see current wind gust speed)